createdAt,value
2023-01-11T00:00:46.909Z,3.17
2023-01-11T00:03:13.437Z,4.47
2023-01-11T00:05:41.626Z,3.30
2023-01-11T00:08:08.999Z,3.70
2023-01-11T00:10:36.185Z,3.05
2023-01-11T00:13:03.469Z,3.15
2023-01-11T00:15:30.494Z,3.15
2023-01-11T00:17:57.717Z,2.88
2023-01-11T00:20:24.522Z,3.45
2023-01-11T00:22:50.997Z,3.75
2023-01-11T00:25:17.851Z,2.67
2023-01-11T00:27:44.325Z,2.90
2023-01-11T00:30:11.561Z,2.95
2023-01-11T00:32:38.048Z,3.03
2023-01-11T00:35:04.909Z,3.63
2023-01-11T00:37:31.436Z,2.90
2023-01-11T00:39:58.005Z,2.38
2023-01-11T00:42:42.838Z,3.78
2023-01-11T00:45:28.644Z,2.47
2023-01-11T00:47:57.983Z,3.88
2023-01-11T00:50:25.583Z,2.83
2023-01-11T00:52:52.106Z,3.08
2023-01-11T00:55:18.877Z,3.50
2023-01-11T00:57:45.368Z,3.30
2023-01-11T01:00:12.636Z,3.15
2023-01-11T01:02:39.244Z,2.95
2023-01-11T01:05:06.253Z,3.35
2023-01-11T01:07:32.706Z,3.08
2023-01-11T01:09:59.149Z,3.10
2023-01-11T01:12:43.988Z,3.05
2023-01-11T01:15:10.885Z,3.47
2023-01-11T01:17:37.309Z,3.38
2023-01-11T01:20:04.341Z,2.78
2023-01-11T01:22:30.841Z,2.63
2023-01-11T01:24:57.307Z,2.70
2023-01-11T01:27:23.786Z,2.83
2023-01-11T01:29:50.225Z,2.95
2023-01-11T01:32:16.775Z,2.53
2023-01-11T01:34:43.322Z,3.15
2023-01-11T01:37:11.273Z,2.72
2023-01-11T01:39:38.512Z,3.08
2023-01-11T01:42:06.062Z,2.60
2023-01-11T01:45:16.786Z,2.55
2023-01-11T01:47:53.581Z,3.42
2023-01-11T01:50:29.517Z,2.78
2023-01-11T01:53:03.248Z,3.75
2023-01-11T01:55:36.290Z,2.25
2023-01-11T01:58:07.225Z,2.58
2023-01-11T02:00:33.919Z,2.03
2023-01-11T02:03:01.993Z,2.55
2023-01-11T02:12:49.560Z,3.47
2023-01-11T02:15:18.375Z,2.20
2023-01-11T02:17:44.940Z,2.75
2023-01-11T02:20:19.972Z,2.50
2023-01-11T02:22:46.465Z,2.08
2023-01-11T02:25:12.856Z,2.55
2023-01-11T02:28:22.423Z,2.67
2023-01-11T02:31:07.415Z,2.08
2023-01-11T02:33:36.531Z,2.70
2023-01-11T02:36:12.349Z,2.60
2023-01-11T02:38:57.912Z,1.95
2023-01-11T02:41:57.011Z,2.00
2023-01-11T02:44:47.332Z,1.90
2023-01-11T02:47:21.624Z,1.92
2023-01-11T02:49:59.853Z,2.53
2023-01-11T02:52:55.803Z,2.53
2023-01-11T02:55:27.690Z,1.83
2023-01-11T02:57:57.663Z,2.38
2023-01-11T03:00:25.620Z,1.58
2023-01-11T03:03:13.571Z,2.45
2023-01-11T03:06:03.155Z,2.15
2023-01-11T03:08:58.704Z,2.63
2023-01-11T03:12:17.751Z,2.22
2023-01-11T03:14:56.412Z,1.67
2023-01-11T03:17:28.802Z,2.13
2023-01-11T03:20:26.833Z,2.10
2023-01-11T03:23:27.375Z,1.90
2023-01-11T03:25:57.011Z,2.47
2023-01-11T03:28:59.915Z,2.10
2023-01-11T03:31:38.535Z,1.63
2023-01-11T03:34:26.665Z,2.60
2023-01-11T03:37:01.750Z,1.80
2023-01-11T03:39:54.054Z,2.20
2023-01-11T03:42:24.101Z,2.05
2023-01-11T03:44:55.348Z,2.20
2023-01-11T03:47:25.203Z,2.22
2023-01-11T03:50:01.440Z,2.42
2023-01-11T03:52:32.558Z,2.03
2023-01-11T03:55:00.792Z,2.30
2023-01-11T03:57:37.702Z,1.58
2023-01-11T04:00:07.536Z,2.20
2023-01-11T04:02:40.169Z,1.77
2023-01-11T04:05:09.304Z,3.08
2023-01-11T04:07:35.953Z,1.98
2023-01-11T04:10:03.739Z,2.33
2023-01-11T04:12:30.189Z,2.78
2023-01-11T04:14:56.701Z,1.88
2023-01-11T04:17:23.364Z,1.45
2023-01-11T04:19:49.871Z,2.55
2023-01-11T04:22:16.386Z,1.80
2023-01-11T04:24:43.030Z,1.63
2023-01-11T04:27:09.529Z,2.05
2023-01-11T04:29:36.181Z,2.00
2023-01-11T04:32:03.651Z,2.10
2023-01-11T04:34:30.130Z,1.90
2023-01-11T04:36:56.687Z,2.03
2023-01-11T04:39:23.201Z,2.22
2023-01-11T04:42:08.046Z,2.15
2023-01-11T04:44:34.537Z,2.22
2023-01-11T04:47:00.956Z,2.38
2023-01-11T04:49:27.590Z,2.13
2023-01-11T04:51:54.043Z,2.30
2023-01-11T04:54:20.516Z,1.75
2023-01-11T04:56:46.932Z,1.90
2023-01-11T04:59:14.222Z,1.98
2023-01-11T05:01:40.817Z,1.95
2023-01-11T05:04:07.277Z,2.45
2023-01-11T05:06:33.876Z,1.60
2023-01-11T05:09:00.401Z,1.73
2023-01-11T05:11:26.901Z,2.00
2023-01-11T05:13:53.334Z,1.80
2023-01-11T05:16:23.742Z,1.83
2023-01-11T05:18:51.724Z,2.20
2023-01-11T05:21:21.748Z,1.98
2023-01-11T05:23:49.032Z,1.92
2023-01-11T05:26:22.845Z,2.50
2023-01-11T05:28:50.578Z,1.77
2023-01-11T05:31:17.318Z,1.77
2023-01-11T05:33:44.478Z,2.40
2023-01-11T05:36:14.284Z,1.90
2023-01-11T05:38:40.835Z,2.50
2023-01-11T05:41:09.738Z,1.80
2023-01-11T05:43:55.540Z,1.75
2023-01-11T05:46:22.318Z,2.78
2023-01-11T05:48:49.132Z,2.28
2023-01-11T05:51:15.892Z,2.30
2023-01-11T05:53:42.507Z,1.70
2023-01-11T05:56:09.308Z,1.77
2023-01-11T05:58:35.885Z,2.05
2023-01-11T06:01:02.399Z,1.67
2023-01-11T06:03:28.839Z,1.65
2023-01-11T06:05:55.443Z,2.30
2023-01-11T06:08:21.888Z,2.92
2023-01-11T06:10:55.887Z,2.30
2023-01-11T06:13:26.669Z,2.28
2023-01-11T06:16:06.907Z,2.53
2023-01-11T06:18:36.584Z,3.33
2023-01-11T06:21:04.452Z,2.30
2023-01-11T06:23:33.946Z,2.58
2023-01-11T06:26:05.099Z,1.90
2023-01-11T06:28:31.659Z,1.92
2023-01-11T06:30:59.406Z,1.83
2023-01-11T06:33:27.814Z,2.08
2023-01-11T06:35:54.778Z,1.85
2023-01-11T06:38:23.505Z,1.42
2023-01-11T06:41:00.315Z,1.63
2023-01-11T06:43:28.357Z,1.92
2023-01-11T06:45:55.283Z,2.42
2023-01-11T06:48:22.744Z,1.80
2023-01-11T06:50:54.783Z,1.50
2023-01-11T06:53:22.370Z,2.08
2023-01-11T06:55:52.848Z,1.55
2023-01-11T06:58:20.418Z,1.98
2023-01-11T07:00:47.327Z,2.05
2023-01-11T07:03:13.852Z,2.00
2023-01-11T07:05:41.213Z,1.63
2023-01-11T07:08:08.432Z,2.17
2023-01-11T07:10:35.064Z,1.67
2023-01-11T07:13:01.761Z,1.60
2023-01-11T07:15:28.515Z,1.70
2023-01-11T07:17:59.758Z,2.08
2023-01-11T07:20:26.903Z,2.17
2023-01-11T07:22:58.281Z,1.95
2023-01-11T07:25:25.856Z,1.80
2023-01-11T07:27:59.749Z,2.05
2023-01-11T07:30:28.439Z,1.65
2023-01-11T07:32:57.017Z,1.50
2023-01-11T07:35:23.484Z,2.83
2023-01-11T07:37:50.098Z,1.83
2023-01-11T07:40:18.001Z,2.20
2023-01-11T07:43:13.417Z,1.77
2023-01-11T07:45:45.703Z,1.55
2023-01-11T07:48:13.785Z,1.83
2023-01-11T07:50:44.265Z,2.13
2023-01-11T07:53:12.274Z,1.90
2023-01-11T07:55:39.773Z,2.10
2023-01-11T07:58:07.740Z,1.73
2023-01-11T08:00:34.290Z,1.30
2023-01-11T08:03:01.659Z,4.32
2023-01-11T08:05:28.396Z,2.47
2023-01-11T08:07:54.981Z,2.78
2023-01-11T08:10:21.562Z,3.10
2023-01-11T08:13:07.555Z,2.90
2023-01-11T08:15:39.385Z,3.13
2023-01-11T08:18:06.412Z,3.75
2023-01-11T08:20:33.168Z,3.55
2023-01-11T08:23:06.201Z,3.25
2023-01-11T08:25:36.142Z,2.55
2023-01-11T08:28:05.463Z,3.20
2023-01-11T08:30:32.323Z,2.70
2023-01-11T08:33:00.980Z,3.10
2023-01-11T08:35:27.848Z,2.13
2023-01-11T08:37:54.515Z,2.92
2023-01-11T08:40:23.852Z,2.80
2023-01-11T08:42:55.338Z,1.88
2023-01-11T08:45:22.167Z,1.33
2023-01-11T08:47:50.731Z,2.33
2023-01-11T08:50:18.676Z,1.65
2023-01-11T08:52:45.909Z,2.40
2023-01-11T08:55:12.483Z,1.88
2023-01-11T08:57:39.209Z,1.88
2023-01-11T09:00:07.478Z,1.70
2023-01-11T09:02:34.280Z,1.83
2023-01-11T09:05:00.884Z,1.90
2023-01-11T09:07:27.376Z,1.80
2023-01-11T09:09:53.912Z,1.98
2023-01-11T09:12:20.409Z,2.03
2023-01-11T09:14:46.942Z,2.03
2023-01-11T09:17:13.439Z,2.40
2023-01-11T09:19:39.920Z,1.85
2023-01-11T09:22:06.400Z,1.60
2023-01-11T09:24:33.008Z,1.83
2023-01-11T09:27:00.427Z,1.63
2023-01-11T09:29:27.098Z,1.85
2023-01-11T09:31:53.763Z,2.10
2023-01-11T09:34:21.012Z,1.58
2023-01-11T09:36:49.049Z,1.70
2023-01-11T09:39:18.829Z,1.80
2023-01-11T09:41:45.277Z,1.90
2023-01-11T09:44:18.998Z,2.08
2023-01-11T09:46:51.314Z,2.42
2023-01-11T09:49:31.371Z,2.28
2023-01-11T09:52:21.733Z,2.20
2023-01-11T09:54:48.230Z,2.50
2023-01-11T09:57:18.312Z,2.60
2023-01-11T09:59:52.901Z,2.13
2023-01-11T10:02:59.216Z,2.63
2023-01-11T10:05:29.845Z,2.50
2023-01-11T10:18:31.010Z,2.60
2023-01-11T10:19:12.344Z,2.15
2023-01-11T10:21:27.258Z,2.55
2023-01-11T10:23:58.048Z,2.45
2023-01-11T10:26:32.365Z,3.28
2023-01-11T10:29:16.501Z,2.72
2023-01-11T10:31:59.766Z,2.50
2023-01-11T10:34:59.965Z,2.30
2023-01-11T10:37:49.989Z,2.97
2023-01-11T10:40:40.632Z,3.25
2023-01-11T10:43:21.852Z,2.10
2023-01-11T10:45:52.868Z,2.42
2023-01-11T10:48:28.324Z,2.95
2023-01-11T10:50:54.902Z,2.72
2023-01-11T10:53:28.224Z,2.50
2023-01-11T10:56:06.858Z,2.78
2023-01-11T10:59:06.170Z,2.72
2023-01-11T11:01:46.373Z,2.35
2023-01-11T11:04:42.625Z,2.53
2023-01-11T11:07:24.177Z,2.80
2023-01-11T11:10:26.311Z,2.53
2023-01-11T11:13:07.423Z,2.63
2023-01-11T11:15:40.900Z,2.75
2023-01-11T11:18:07.652Z,2.83
2023-01-11T11:20:34.792Z,3.60
2023-01-11T11:23:01.869Z,3.13
2023-01-11T11:25:37.731Z,3.13
2023-01-11T11:28:07.087Z,2.83
2023-01-11T11:30:39.523Z,2.97
2023-01-11T11:33:27.935Z,2.92
2023-01-11T11:36:02.188Z,2.55
2023-01-11T11:38:31.013Z,2.88
2023-01-11T11:41:17.748Z,3.60
2023-01-11T11:43:47.232Z,3.00
2023-01-11T11:46:18.912Z,3.85
2023-01-11T11:49:15.728Z,3.25
2023-01-11T11:51:45.169Z,3.15
2023-01-11T11:54:28.440Z,3.10
2023-01-11T11:56:57.603Z,3.58
2023-01-11T11:59:28.507Z,3.47
2023-01-11T12:02:00.791Z,2.65
2023-01-11T12:04:39.976Z,3.92
2023-01-11T12:07:16.116Z,3.92
2023-01-11T12:09:47.594Z,3.60
2023-01-11T12:12:24.958Z,3.90
2023-01-11T12:15:20.938Z,3.28
2023-01-11T12:17:48.097Z,3.03
2023-01-11T12:20:23.951Z,3.47
2023-01-11T12:23:15.719Z,3.80
2023-01-11T12:26:11.179Z,3.17
2023-01-11T12:29:14.728Z,2.83
2023-01-11T12:32:05.843Z,3.30
2023-01-11T12:34:45.813Z,3.38
2023-01-11T12:37:30.086Z,3.22
2023-01-11T12:40:17.361Z,3.90
2023-01-11T12:43:03.581Z,3.33
2023-01-11T12:45:59.433Z,3.15
2023-01-11T12:48:36.416Z,2.65
2023-01-11T12:51:37.139Z,3.10
2023-01-11T12:54:29.553Z,3.22
2023-01-11T12:57:31.968Z,2.70
2023-01-11T13:00:01.036Z,2.95
2023-01-11T13:02:36.386Z,2.58
2023-01-11T13:05:29.197Z,2.67
2023-01-11T13:08:16.548Z,2.80
2023-01-11T13:11:35.224Z,3.47
2023-01-11T13:14:30.906Z,2.60
2023-01-11T13:17:18.696Z,2.63
2023-01-11T13:20:06.914Z,2.38
2023-01-11T13:22:38.776Z,2.45
2023-01-11T13:25:16.887Z,3.00
2023-01-11T13:27:44.954Z,3.20
2023-01-11T13:30:14.066Z,2.78
2023-01-11T13:32:44.387Z,2.75
2023-01-11T13:35:18.387Z,2.97
2023-01-11T13:37:52.327Z,2.60
2023-01-11T13:40:24.831Z,3.45
2023-01-11T13:46:47.304Z,3.08
2023-01-11T13:49:29.215Z,3.50
2023-01-11T13:52:04.275Z,2.88
2023-01-11T13:54:56.678Z,3.03
2023-01-11T13:57:34.313Z,3.28
2023-01-11T14:00:11.189Z,3.47
2023-01-11T14:02:48.059Z,3.33
2023-01-11T14:05:18.718Z,3.22
2023-01-11T14:08:15.117Z,3.40
2023-01-11T14:11:09.595Z,3.42
2023-01-11T14:14:15.703Z,3.10
2023-01-11T14:17:04.268Z,3.33
2023-01-11T14:19:55.198Z,3.00
2023-01-11T14:22:45.531Z,3.20
2023-01-11T14:25:33.156Z,3.65
2023-01-11T14:28:49.151Z,3.30
2023-01-11T14:31:40.665Z,3.88
2023-01-11T14:34:22.459Z,4.30
2023-01-11T14:39:53.259Z,3.80
2023-01-11T14:42:45.104Z,3.80
2023-01-11T14:48:20.592Z,4.20
2023-01-11T14:51:33.210Z,4.15
2023-01-11T14:54:12.199Z,3.90
2023-01-11T14:56:49.866Z,4.30
2023-01-11T14:59:40.350Z,3.95
2023-01-11T15:02:16.303Z,4.20
2023-01-11T15:04:52.385Z,3.83
2023-01-11T15:07:31.556Z,4.78
2023-01-11T15:10:07.177Z,4.20
2023-01-11T15:12:41.333Z,3.95
2023-01-11T15:15:24.921Z,5.35
2023-01-11T15:18:15.832Z,5.30
2023-01-11T15:21:01.820Z,5.27
2023-01-11T15:23:39.926Z,4.05
2023-01-11T15:26:15.547Z,4.40
2023-01-11T15:29:12.463Z,3.80
2023-01-11T15:32:17.969Z,4.20
2023-01-11T15:35:19.643Z,4.20
2023-01-11T15:38:14.228Z,4.20
2023-01-11T15:44:41.766Z,4.35
2023-01-11T15:47:11.155Z,4.15
2023-01-11T15:50:02.647Z,5.03
2023-01-11T15:52:34.998Z,4.43
2023-01-11T15:55:23.807Z,4.80
2023-01-11T16:01:23.641Z,5.75
2023-01-11T16:04:10.574Z,5.50
2023-01-11T16:07:10.324Z,5.47
2023-01-11T16:10:01.565Z,6.00
2023-01-11T16:13:23.366Z,4.13
2023-01-11T16:16:31.828Z,4.70
2023-01-11T16:19:09.872Z,3.90
2023-01-11T16:21:49.434Z,4.55
2023-01-11T16:24:20.914Z,3.63
2023-01-11T16:27:17.409Z,4.55
2023-01-11T16:29:50.689Z,4.13
2023-01-11T16:32:27.238Z,4.68
2023-01-11T16:34:55.728Z,4.18
2023-01-11T16:37:36.086Z,4.28
2023-01-11T16:40:15.539Z,3.88
2023-01-11T16:42:48.536Z,4.28
2023-01-11T16:45:23.837Z,4.13
2023-01-11T16:48:23.099Z,3.88
2023-01-11T16:51:07.279Z,4.05
2023-01-11T16:53:37.179Z,3.92
2023-01-11T16:56:05.825Z,4.38
2023-01-11T16:58:40.320Z,4.32
2023-01-11T17:01:12.558Z,4.40
2023-01-11T17:03:54.201Z,4.22
2023-01-11T17:06:23.355Z,4.28
2023-01-11T17:08:55.654Z,4.68
2023-01-11T17:11:42.747Z,5.00
2023-01-11T17:14:37.664Z,5.20
2023-01-11T17:17:09.812Z,4.88
2023-01-11T17:19:43.429Z,5.38
2023-01-11T17:22:27.698Z,5.63
2023-01-11T17:25:01.145Z,6.68
2023-01-11T17:27:41.175Z,6.20
2023-01-11T17:30:19.814Z,5.25
2023-01-11T17:32:49.302Z,5.10
2023-01-11T17:35:24.511Z,5.18
2023-01-11T17:38:03.250Z,5.70
2023-01-11T17:40:33.024Z,4.82
2023-01-11T17:43:30.148Z,5.90
2023-01-11T17:45:58.780Z,6.70
2023-01-11T17:48:29.571Z,5.65
2023-01-11T17:50:59.276Z,8.73
2023-01-11T17:53:29.307Z,6.93
2023-01-11T17:56:00.116Z,6.57
2023-01-11T17:58:33.864Z,6.65
2023-01-11T18:01:09.386Z,6.97
2023-01-11T18:03:48.351Z,7.20
2023-01-11T18:06:41.375Z,7.20
2023-01-11T18:09:29.528Z,7.40
2023-01-11T18:12:18.074Z,8.00
2023-01-11T18:14:52.436Z,8.30
2023-01-11T18:17:24.683Z,8.60
2023-01-11T18:19:51.158Z,10.00
2023-01-11T18:22:26.384Z,8.15
2023-01-11T18:24:54.679Z,9.20
2023-01-11T18:27:32.462Z,9.05
2023-01-11T18:30:02.450Z,9.98
2023-01-11T18:32:35.373Z,9.35
2023-01-11T18:35:02.095Z,8.73
2023-01-11T18:37:28.569Z,9.10
2023-01-11T18:39:55.083Z,9.40
2023-01-11T18:42:26.820Z,9.30
2023-01-11T18:44:53.346Z,8.63
2023-01-11T18:47:28.360Z,9.45
2023-01-11T18:49:55.397Z,8.63
2023-01-11T18:52:27.639Z,9.70
2023-01-11T18:54:56.037Z,9.57
2023-01-11T18:57:23.583Z,9.60
2023-01-11T18:59:54.356Z,10.20
2023-01-11T19:02:25.713Z,10.53
2023-01-11T19:04:57.179Z,10.93
2023-01-11T19:07:26.001Z,10.52
2023-01-11T19:09:54.756Z,11.07
2023-01-11T19:12:21.493Z,12.25
2023-01-11T19:14:48.050Z,11.80
2023-01-11T19:17:14.605Z,11.55
2023-01-11T19:19:41.604Z,11.60
2023-01-11T19:22:09.775Z,10.98
2023-01-11T19:24:36.399Z,11.32
2023-01-11T19:27:03.649Z,12.15
2023-01-11T19:29:30.714Z,14.82
2023-01-11T19:31:57.335Z,10.82
2023-01-11T19:34:24.176Z,11.25
2023-01-11T19:36:52.422Z,10.20
2023-01-11T19:39:19.467Z,11.40
2023-01-11T19:41:55.370Z,11.40
2023-01-11T19:44:22.813Z,11.60
2023-01-11T19:46:56.738Z,11.50
2023-01-11T19:49:23.625Z,10.50
2023-01-11T19:51:51.001Z,11.50
2023-01-11T19:54:20.654Z,10.00
2023-01-11T19:56:48.689Z,10.82
2023-01-11T19:59:15.686Z,10.82
2023-01-11T20:01:42.859Z,11.10
2023-01-11T20:04:10.838Z,10.38
2023-01-11T20:06:40.853Z,10.43
2023-01-11T20:09:09.883Z,11.18
2023-01-11T20:11:36.745Z,11.32
2023-01-11T20:14:03.218Z,10.77
2023-01-11T20:16:29.714Z,12.38
2023-01-11T20:18:57.292Z,12.02
2023-01-11T20:21:27.558Z,11.40
2023-01-11T20:23:57.570Z,10.77
2023-01-11T20:26:24.559Z,10.05
2023-01-11T20:28:54.461Z,9.27
2023-01-11T20:31:27.279Z,9.73
2023-01-11T20:33:55.208Z,10.32
2023-01-11T20:36:21.821Z,9.35
2023-01-11T20:38:48.266Z,7.82
2023-01-11T20:41:36.880Z,9.45
2023-01-11T20:44:04.869Z,7.72
2023-01-11T20:46:31.763Z,7.97
2023-01-11T20:48:58.307Z,8.75
2023-01-11T20:51:24.755Z,8.57
2023-01-11T20:53:51.482Z,8.32
2023-01-11T20:56:18.616Z,8.23
2023-01-11T20:58:48.661Z,8.05
2023-01-11T21:01:27.764Z,9.00
2023-01-11T21:03:57.389Z,7.90
2023-01-11T21:06:24.171Z,8.00
2023-01-11T21:08:55.233Z,9.13
2023-01-11T21:11:21.940Z,7.13
2023-01-11T21:13:50.500Z,7.50
2023-01-11T21:16:17.060Z,7.43
2023-01-11T21:18:44.006Z,7.57
2023-01-11T21:21:19.050Z,9.65
2023-01-11T21:23:46.761Z,8.75
2023-01-11T21:26:16.331Z,8.65
2023-01-11T21:28:44.277Z,8.60
2023-01-11T21:31:12.846Z,9.73
2023-01-11T21:33:39.744Z,10.32
2023-01-11T21:36:11.550Z,9.95
2023-01-11T21:38:38.535Z,9.45
2023-01-11T21:41:10.719Z,9.82
2023-01-11T21:43:37.729Z,9.30
2023-01-11T21:46:06.518Z,10.57
2023-01-11T21:48:33.622Z,10.13
2023-01-11T21:51:00.191Z,9.55
2023-01-11T21:53:33.414Z,10.55
2023-01-11T21:56:07.872Z,10.60
2023-01-11T21:58:35.365Z,10.82
2023-01-11T22:01:11.185Z,11.15
2023-01-11T22:03:38.164Z,11.10
2023-01-11T22:06:05.106Z,10.20
2023-01-11T22:08:35.437Z,10.48
2023-01-11T22:11:04.383Z,11.68
2023-01-11T22:13:34.123Z,10.25
2023-01-11T22:16:06.669Z,11.05
2023-01-11T22:18:34.743Z,10.55
2023-01-11T22:21:07.335Z,11.43
2023-01-11T22:23:34.022Z,10.20
2023-01-11T22:26:05.513Z,10.68
2023-01-11T22:28:32.161Z,10.82
2023-01-11T22:31:07.873Z,11.00
2023-01-11T22:33:36.498Z,11.40
2023-01-11T22:36:04.478Z,11.13
2023-01-11T22:38:30.890Z,10.48
2023-01-11T22:40:59.593Z,10.73
2023-01-11T22:43:26.074Z,9.77
2023-01-11T22:46:00.378Z,10.80
2023-01-11T22:48:27.599Z,10.10
2023-01-11T22:50:55.088Z,9.57
2023-01-11T22:53:21.734Z,10.57
2023-01-11T22:55:48.255Z,10.23
2023-01-11T22:58:14.680Z,9.98
2023-01-11T23:00:41.159Z,10.07
2023-01-11T23:03:07.891Z,10.90
2023-01-11T23:05:34.516Z,11.40
2023-01-11T23:08:01.096Z,10.73
2023-01-11T23:10:27.542Z,9.80
2023-01-11T23:13:12.423Z,8.98
2023-01-11T23:15:39.553Z,9.48
2023-01-11T23:18:07.078Z,9.18
2023-01-11T23:20:34.594Z,9.82
2023-01-11T23:23:01.335Z,9.52
2023-01-11T23:25:27.776Z,10.73
2023-01-11T23:27:54.269Z,8.80
2023-01-11T23:30:20.927Z,9.40
2023-01-11T23:32:47.341Z,8.80
2023-01-11T23:35:13.864Z,8.50
2023-01-11T23:37:40.393Z,9.43
2023-01-11T23:40:07.862Z,8.98
2023-01-11T23:42:35.495Z,9.52
2023-01-11T23:45:01.964Z,9.82
2023-01-11T23:47:31.404Z,8.82
2023-01-11T23:50:00.751Z,10.23
2023-01-11T23:52:30.297Z,9.30
2023-01-11T23:54:57.434Z,9.52
2023-01-11T23:57:25.426Z,8.70
2023-01-11T23:59:52.315Z,9.95
